Terminal Aerodrome Forecast
Issued by NWS Newport/Morehead City, NC

Home | Current Version | Previous Version | Text Only | Print | Product List | Glossary On
Versions: 1 2 3 4 5 6 7 8 9 10 11 12 13 14 15 16
986
FTUS42 KMHX 180533
TAFEWN
TAF
KEWN 180533Z 1806/1906 34011G23KT 1SM -SN BR BKN008 OVC015
     FM180800 33011G23KT P6SM BKN020
     FM181000 33010G22KT P6SM BKN050
     FM181100 32009KT P6SM FEW080=

USA.gov is the U.S. government's official web portal to all federal, state and local government web resources and services.